Burlington City, New Jersey
Current Conditions -  °F | °C
As of 12:54 AM on Wednesday 22 Oct 2014 (Local Time) from KVAY Reporting Station
Overcast Overcast  
Wind Chill: 54°   Ceiling: 9000
Heat Index: 54°   Visibility: 10mi
Dew Point: 50°   Wind: 5mph
Humidity: 86%   Direction: 10°N
Pressure: 29.87"   Gusts: NA
Location:  40.0691°N, 74.8276°W
Report Text: KVAY 220454Z AUTO 01004KT 10SM OVC090 12/10 A2987 RMK AO2 SLP113 T01220100 402060078
Loading
Personal Weather Stations






























Interactive Weather Map
Tropical Storm Tracking
New forecast layout! Learn more

10-Day Weather Forecast

Advertisements
Track Severe Weather on mobile